Time;durP1;ratioP1;P1;durP2;ratioP2;P2;SDS_P1;SDS_P2;PMS_P1;PMS_P2;Temp;Humidity;BMP_temperature;BMP_pressure;BME280_temperature;BME280_humidity;BME280_pressure;Samples;Min_cycle;Max_cycle;Signal;HPM_P1;HPM_P2
2022/03/30 00:00:14;;;;;;;5.33;3.37;;;5.00;99.90;;;;;;5126622;28;20096;-69
2022/03/30 00:02:40;;;;;;;4.80;2.85;;;5.00;99.90;;;;;;5119366;28;20316;-69
2022/03/30 00:05:06;;;;;;;5.50;3.67;;;5.00;99.90;;;;;;5108715;28;20131;-69
2022/03/30 00:07:32;;;;;;;5.13;3.63;;;5.00;99.90;;;;;;5122717;28;20050;-69
2022/03/30 00:09:59;;;;;;;5.93;3.50;;;5.00;99.90;;;;;;5093763;28;20044;-68
2022/03/30 00:12:25;;;;;;;6.00;3.58;;;5.00;99.90;;;;;;5126148;28;20284;-69
2022/03/30 00:14:51;;;;;;;5.32;3.50;;;5.00;99.90;;;;;;5120359;28;20513;-68
2022/03/30 00:17:17;;;;;;;7.38;4.75;;;4.90;99.90;;;;;;5089906;27;20044;-69
2022/03/30 00:19:43;;;;;;;8.88;5.35;;;5.00;99.90;;;;;;5123279;28;20058;-68
2022/03/30 00:22:09;;;;;;;11.57;6.15;;;5.00;99.90;;;;;;5119390;27;20034;-68
2022/03/30 00:24:35;;;;;;;9.95;6.43;;;4.90;99.90;;;;;;5106455;28;20133;-69
2022/03/30 00:27:02;;;;;;;;;;;4.90;99.90;;;;;;5113244;27;20562;-68
2022/03/30 00:29:28;;;;;;;9.48;5.85;;;4.90;99.90;;;;;;5112641;27;19919;-70
2022/03/30 00:31:54;;;;;;;8.30;5.35;;;4.90;99.90;;;;;;5121501;27;20065;-69
2022/03/30 00:34:19;;;;;;;9.52;6.38;;;4.90;99.90;;;;;;5119345;28;20054;-69
2022/03/30 00:36:45;;;;;;;8.52;6.15;;;4.90;99.90;;;;;;5112665;28;20699;-69
2022/03/30 00:39:11;;;;;;;9.82;6.32;;;4.90;99.90;;;;;;5128851;27;20111;-69
2022/03/30 00:41:36;;;;;;;9.88;6.30;;;4.90;99.90;;;;;;5123508;27;20070;-68
2022/03/30 00:44:10;;;;;;;9.75;5.65;;;4.90;99.90;;;;;;5125026;27;20031;-68
2022/03/30 00:46:36;;;;;;;8.40;5.45;;;4.90;99.90;;;;;;5135143;27;20067;-69
2022/03/30 00:49:04;;;;;;;8.68;5.30;;;5.00;99.90;;;;;;5124015;27;20043;-69
2022/03/30 00:51:30;;;;;;;10.30;6.43;;;5.00;99.90;;;;;;5109680;27;20471;-68
2022/03/30 00:53:56;;;;;;;9.77;6.57;;;5.00;99.90;;;;;;5124888;27;20526;-69
2022/03/30 00:56:23;;;;;;;10.63;6.20;;;5.00;99.90;;;;;;5128577;27;20489;-69
2022/03/30 00:58:50;;;;;;;10.90;6.57;;;5.00;99.90;;;;;;5127134;27;20027;-69
2022/03/30 01:01:15;;;;;;;;;;;4.90;99.90;;;;;;5128169;27;20043;-69
2022/03/30 01:03:41;;;;;;;15.63;7.88;;;4.90;99.90;;;;;;5114509;27;19968;-69
2022/03/30 01:06:07;;;;;;;13.93;7.30;;;5.00;99.90;;;;;;5107513;27;20041;-69
2022/03/30 01:08:32;;;;;;;11.38;7.05;;;5.00;99.90;;;;;;5130059;27;20492;-69
2022/03/30 01:11:00;;;;;;;17.75;8.07;;;5.00;99.90;;;;;;5104557;27;20489;-67
2022/03/30 01:13:26;;;;;;;12.00;7.38;;;5.00;99.90;;;;;;5124485;27;20077;-69
2022/03/30 01:15:52;;;;;;;18.75;9.32;;;5.00;99.90;;;;;;5124781;27;20478;-70
2022/03/30 01:18:18;;;;;;;12.98;7.72;;;5.10;99.90;;;;;;5147799;27;20519;-69
2022/03/30 01:20:48;;;;;;;10.68;6.75;;;5.00;99.90;;;;;;5110686;27;20035;-69
2022/03/30 01:23:14;;;;;;;12.90;7.47;;;5.10;99.90;;;;;;5124863;27;20114;-69
2022/03/30 01:25:39;;;;;;;12.00;7.55;;;5.10;99.90;;;;;;5124367;27;20118;-69
2022/03/30 01:28:05;;;;;;;12.80;7.43;;;5.10;99.90;;;;;;5133223;27;20043;-68
2022/03/30 01:33:15;;;;;;;13.32;7.55;;;5.10;99.90;;;;;;5117402;27;20119;-68
2022/03/30 01:35:41;;;;;;;10.15;6.35;;;5.10;99.90;;;;;;5128676;27;20050;-69
2022/03/30 01:38:07;;;;;;;10.38;5.68;;;5.10;99.90;;;;;;5127103;27;20123;-69
2022/03/30 01:40:34;;;;;;;14.73;7.90;;;5.10;99.90;;;;;;5107227;27;20565;-69
2022/03/30 01:43:00;;;;;;;;;;;5.20;99.90;;;;;;5106628;27;20043;-69
2022/03/30 01:45:27;;;;;;;10.50;6.10;;;5.10;99.90;;;;;;5114521;27;20285;-69
2022/03/30 01:47:58;;;;;;;13.13;7.20;;;5.20;99.90;;;;;;5127207;27;20046;-69
2022/03/30 01:50:25;;;;;;;13.50;7.20;;;5.10;99.90;;;;;;5133210;27;20046;-69
2022/03/30 01:52:51;;;;;;;10.65;6.50;;;5.10;99.90;;;;;;5108150;27;20043;-68
2022/03/30 01:55:18;;;;;;;13.15;7.22;;;5.10;99.90;;;;;;5123205;27;20035;-68
2022/03/30 01:57:44;;;;;;;11.95;7.28;;;5.00;99.90;;;;;;5110396;27;20037;-68
2022/03/30 02:00:11;;;;;;;;;;;5.00;99.90;;;;;;5125747;27;20515;-69
2022/03/30 02:02:38;;;;;;;9.77;6.20;;;5.10;99.90;;;;;;5099386;27;19961;-69
2022/03/30 02:05:06;;;;;;;10.05;6.38;;;5.10;99.90;;;;;;5147007;27;20088;-69
2022/03/30 02:07:32;;;;;;;11.23;6.63;;;5.10;99.90;;;;;;5109106;27;20603;-68
2022/03/30 02:09:57;;;;;;;14.48;7.57;;;5.20;99.90;;;;;;5127886;27;20050;-68
2022/03/30 02:12:23;;;;;;;12.38;7.82;;;5.10;99.90;;;;;;5123269;27;20045;-68
2022/03/30 02:14:51;;;;;;;14.70;7.15;;;5.20;99.90;;;;;;5112614;27;20106;-69
2022/03/30 02:17:18;;;;;;;17.88;8.75;;;5.10;99.90;;;;;;5123217;27;20095;-69
2022/03/30 02:19:45;;;;;;;12.52;7.80;;;5.20;99.90;;;;;;5120781;27;20411;-69
2022/03/30 02:22:10;;;;;;;15.38;8.20;;;5.20;99.90;;;;;;5109032;27;20035;-69
2022/03/30 02:24:37;;;;;;;16.40;8.20;;;5.30;99.90;;;;;;5130244;27;20038;-68
2022/03/30 02:27:03;;;;;;;15.70;8.07;;;5.30;99.90;;;;;;5123566;27;20039;-68
2022/03/30 02:29:28;;;;;;;13.30;7.93;;;5.40;99.90;;;;;;5143076;27;20042;-67
2022/03/30 02:31:55;;;;;;;10.70;6.50;;;5.40;99.90;;;;;;5107030;27;20151;-69
2022/03/30 02:34:22;;;;;;;12.52;6.88;;;5.40;99.90;;;;;;5093902;27;20077;-69
2022/03/30 02:36:48;;;;;;;12.63;7.13;;;5.50;99.90;;;;;;5153420;27;20043;-69
2022/03/30 02:39:15;;;;;;;9.32;5.57;;;5.40;99.90;;;;;;5107323;27;20054;-69
2022/03/30 02:41:41;;;;;;;7.50;4.85;;;5.50;99.90;;;;;;5117344;27;20043;-69
2022/03/30 02:44:08;;;;;;;6.60;3.80;;;5.50;99.90;;;;;;5114049;27;20110;-68
2022/03/30 02:46:34;;;;;;;;;;;5.50;99.90;;;;;;5114403;27;20043;-68
2022/03/30 02:48:59;;;;;;;4.72;2.88;;;5.60;99.90;;;;;;5132562;27;19964;-68
2022/03/30 02:51:27;;;;;;;4.70;2.55;;;5.60;99.90;;;;;;5124353;27;20031;-69
2022/03/30 02:53:54;;;;;;;4.32;2.17;;;5.60;99.90;;;;;;5130990;27;20093;-68
2022/03/30 02:56:19;;;;;;;3.33;1.60;;;5.50;99.90;;;;;;5100553;27;20099;-68
2022/03/30 02:58:45;;;;;;;3.35;1.40;;;5.60;99.90;;;;;;5152862;27;20034;-68
2022/03/30 03:01:11;;;;;;;2.22;1.20;;;5.60;99.90;;;;;;5117792;27;20371;-68
2022/03/30 03:03:37;;;;;;;1.27;1.00;;;5.60;99.90;;;;;;5119087;27;20031;-69
2022/03/30 03:06:02;;;;;;;1.45;0.77;;;5.60;99.90;;;;;;5125147;27;20586;-68
2022/03/30 03:08:28;;;;;;;0.82;0.50;;;5.60;99.90;;;;;;5130922;27;20061;-68
2022/03/30 03:10:54;;;;;;;1.75;0.55;;;5.50;99.90;;;;;;5102759;27;20772;-69
2022/03/30 03:13:20;;;;;;;1.73;0.50;;;5.50;99.90;;;;;;5113773;27;20126;-69
2022/03/30 03:15:46;;;;;;;2.75;0.63;;;5.60;99.90;;;;;;5113821;27;20499;-69
2022/03/30 03:18:13;;;;;;;1.38;0.50;;;5.50;99.90;;;;;;5104878;27;20050;-69
2022/03/30 03:20:42;;;;;;;2.15;0.52;;;5.60;99.90;;;;;;5105052;27;20118;-69
2022/03/30 03:23:10;;;;;;;1.50;0.60;;;5.50;99.90;;;;;;5117428;27;20074;-69
2022/03/30 03:25:37;;;;;;;1.20;0.35;;;5.60;99.90;;;;;;5129726;27;20542;-69
2022/03/30 03:28:04;;;;;;;0.40;0.40;;;5.60;99.90;;;;;;5129665;27;20133;-69
2022/03/30 03:30:29;;;;;;;0.98;0.30;;;5.50;99.90;;;;;;5133882;27;20569;-69
2022/03/30 03:32:56;;;;;;;2.60;0.50;;;5.60;99.90;;;;;;5123152;27;20074;-69
2022/03/30 03:35:22;;;;;;;;;;;5.60;99.90;;;;;;5132744;27;20075;-69
2022/03/30 03:37:48;;;;;;;1.38;0.40;;;5.50;99.90;;;;;;5128672;28;20018;-69
2022/03/30 03:40:13;;;;;;;3.33;0.40;;;5.50;99.90;;;;;;5113216;27;20046;-68
2022/03/30 03:42:40;;;;;;;0.60;0.35;;;5.50;99.90;;;;;;5123409;28;20031;-69
2022/03/30 03:45:07;;;;;;;1.52;0.40;;;5.40;99.90;;;;;;5116529;28;20039;-69
2022/03/30 03:47:33;;;;;;;1.50;0.40;;;5.40;99.90;;;;;;5113342;27;20043;-69
2022/03/30 03:50:00;;;;;;;1.50;0.50;;;5.40;99.90;;;;;;5130847;27;20066;-69
2022/03/30 03:52:26;;;;;;;;;;;5.30;99.90;;;;;;5124701;27;20050;-69
2022/03/30 03:54:52;;;;;;;0.32;0.28;;;5.30;99.90;;;;;;5102467;28;19964;-69
2022/03/30 03:57:18;;;;;;;0.35;0.20;;;5.20;99.90;;;;;;5100382;27;20038;-69
2022/03/30 03:59:43;;;;;;;0.65;0.30;;;5.30;99.90;;;;;;5129595;27;20066;-68
2022/03/30 04:02:09;;;;;;;1.00;0.30;;;5.20;99.90;;;;;;5128497;27;20485;-69
2022/03/30 04:04:37;;;;;;;1.20;0.40;;;5.20;99.90;;;;;;5129102;27;20096;-68
2022/03/30 04:07:03;;;;;;;1.17;0.30;;;5.20;99.90;;;;;;5117371;27;20453;-68
2022/03/30 04:09:29;;;;;;;;;;;5.20;99.90;;;;;;5150342;27;20126;-68
2022/03/30 04:11:55;;;;;;;0.32;0.22;;;5.10;99.90;;;;;;5096175;28;19920;-68
2022/03/30 04:14:21;;;;;;;2.75;0.40;;;5.10;99.90;;;;;;5095904;27;20039;-69
2022/03/30 04:16:47;;;;;;;0.52;0.15;;;5.10;99.90;;;;;;5102577;27;20170;-69
2022/03/30 04:19:15;;;;;;;1.00;0.40;;;5.10;99.90;;;;;;5116943;27;20398;-68
2022/03/30 04:21:41;;;;;;;0.20;0.20;;;5.10;99.90;;;;;;5123659;27;20046;-68
2022/03/30 04:24:07;;;;;;;0.93;0.30;;;5.10;99.90;;;;;;5116761;27;20039;-69
2022/03/30 04:26:33;;;;;;;0.45;0.20;;;5.00;99.90;;;;;;5109076;27;20092;-69
2022/03/30 04:28:58;;;;;;;1.07;0.30;;;5.00;99.90;;;;;;5131621;27;20493;-69
2022/03/30 04:31:24;;;;;;;0.65;0.40;;;4.90;99.90;;;;;;5132135;27;20806;-69
2022/03/30 04:33:53;;;;;;;1.05;0.43;;;4.90;99.90;;;;;;5116878;27;20051;-68
2022/03/30 04:36:19;;;;;;;0.20;0.20;;;4.90;99.90;;;;;;5146837;27;20115;-69
2022/03/30 04:38:45;;;;;;;2.22;0.50;;;4.80;99.90;;;;;;5133386;27;20470;-68
2022/03/30 04:41:11;;;;;;;1.15;0.50;;;4.70;99.90;;;;;;5132639;27;20045;-68
2022/03/30 04:43:36;;;;;;;1.13;0.35;;;4.80;99.90;;;;;;5131795;27;20031;-69
2022/03/30 04:46:02;;;;;;;1.25;0.40;;;4.70;99.90;;;;;;5124975;27;20039;-68
2022/03/30 04:48:28;;;;;;;0.60;0.40;;;4.70;99.90;;;;;;5106152;27;20047;-67
2022/03/30 04:50:54;;;;;;;4.00;0.63;;;4.70;99.90;;;;;;5112476;27;20049;-68
2022/03/30 04:53:19;;;;;;;2.38;0.80;;;4.60;99.90;;;;;;5121901;27;20542;-69
2022/03/30 04:55:45;;;;;;;0.93;0.50;;;4.70;99.90;;;;;;5129839;27;20046;-70
2022/03/30 04:58:11;;;;;;;1.38;0.70;;;4.60;99.90;;;;;;5123636;27;20043;-70
2022/03/30 05:00:37;;;;;;;2.08;0.60;;;4.70;99.90;;;;;;5135049;27;20043;-70
2022/03/30 05:03:03;;;;;;;0.90;0.50;;;4.60;99.90;;;;;;5132079;27;20034;-70
2022/03/30 05:05:29;;;;;;;1.10;0.70;;;4.60;99.90;;;;;;5113520;27;20035;-69
2022/03/30 05:07:55;;;;;;;;;;;4.50;99.90;;;;;;5104907;27;20066;-68
2022/03/30 05:10:22;;;;;;;1.60;0.60;;;4.50;99.90;;;;;;5116698;27;20010;-69
2022/03/30 05:12:48;;;;;;;1.10;0.60;;;4.50;99.90;;;;;;5129901;27;20035;-69
2022/03/30 05:15:13;;;;;;;1.95;0.70;;;4.50;99.90;;;;;;5107915;27;20050;-69
2022/03/30 05:17:43;;;;;;;2.80;0.80;;;4.40;99.90;;;;;;5108087;27;20070;-69
2022/03/30 05:20:15;;;;;;;2.03;1.02;;;4.50;99.90;;;;;;5132621;27;20777;-70
2022/03/30 05:22:41;;;;;;;1.35;0.70;;;4.40;99.90;;;;;;5127025;27;20047;-70
2022/03/30 05:25:08;;;;;;;2.03;0.75;;;4.40;99.90;;;;;;5108099;27;20109;-73
2022/03/30 05:27:33;;;;;;;2.03;0.77;;;4.40;99.90;;;;;;5125264;27;20123;-74
2022/03/30 05:30:02;;;;;;;1.80;0.70;;;4.40;99.90;;;;;;5107554;27;20563;-74
2022/03/30 05:32:27;;;;;;;1.15;0.70;;;4.30;99.90;;;;;;5139273;27;20083;-70
2022/03/30 05:34:53;;;;;;;1.42;0.40;;;4.30;99.90;;;;;;5110328;27;20479;-70
2022/03/30 05:37:19;;;;;;;2.83;1.00;;;4.30;99.90;;;;;;5107876;27;20403;-69
2022/03/30 05:39:45;;;;;;;2.47;0.90;;;4.30;99.90;;;;;;5114663;27;20979;-69
2022/03/30 05:42:16;;;;;;;0.88;0.60;;;4.30;99.90;;;;;;5122467;27;20077;-69
2022/03/30 05:44:42;;;;;;;0.80;0.32;;;4.30;99.90;;;;;;5121016;27;20051;-68
2022/03/30 05:47:09;;;;;;;0.70;0.52;;;4.30;99.90;;;;;;5121961;27;20043;-71
2022/03/30 05:49:35;;;;;;;;;;;4.30;99.90;;;;;;5129236;27;20549;-68
2022/03/30 05:52:01;;;;;;;1.17;0.50;;;4.30;99.90;;;;;;5148104;27;19931;-69
2022/03/30 05:54:26;;;;;;;0.93;0.52;;;4.30;99.90;;;;;;5129048;27;20106;-68
2022/03/30 05:57:01;;;;;;;1.13;0.50;;;4.30;99.90;;;;;;5125113;27;20031;-69
2022/03/30 05:59:31;;;;;;;1.90;0.82;;;4.30;99.90;;;;;;5125128;27;20053;-69
2022/03/30 06:01:57;;;;;;;2.25;0.93;;;4.40;99.90;;;;;;5129236;27;20041;-68
2022/03/30 06:04:24;;;;;;;2.10;0.60;;;4.40;99.90;;;;;;5124909;27;20034;-68
2022/03/30 06:06:52;;;;;;;3.35;0.90;;;4.40;99.90;;;;;;5128048;27;20081;-69
2022/03/30 06:09:19;;;;;;;2.00;1.00;;;4.50;99.90;;;;;;5124992;27;20031;-69
2022/03/30 06:11:46;;;;;;;2.65;1.40;;;4.60;99.90;;;;;;5106127;27;20492;-69
2022/03/30 06:14:14;;;;;;;3.50;1.00;;;4.60;99.90;;;;;;5129335;27;20046;-69
2022/03/30 06:16:40;;;;;;;3.42;1.20;;;4.70;99.90;;;;;;5119095;27;20039;-69
2022/03/30 06:19:06;;;;;;;2.25;1.02;;;4.70;99.90;;;;;;5126748;27;20039;-70
2022/03/30 06:21:31;;;;;;;2.92;1.10;;;4.70;99.90;;;;;;5112011;27;20195;-70
2022/03/30 06:24:01;;;;;;;2.97;1.30;;;4.80;99.90;;;;;;5129261;27;20038;-70
2022/03/30 06:26:27;;;;;;;3.03;1.15;;;4.70;99.90;;;;;;5123208;27;20409;-70
2022/03/30 06:28:53;;;;;;;3.70;1.10;;;4.90;99.90;;;;;;5132672;27;20045;-70
2022/03/30 06:31:19;;;;;;;2.90;0.90;;;4.80;99.90;;;;;;5119714;27;20057;-70
2022/03/30 06:33:46;;;;;;;2.08;1.15;;;4.90;99.90;;;;;;5133228;27;20039;-69
2022/03/30 06:36:12;;;;;;;2.42;1.00;;;4.90;99.90;;;;;;5133305;27;20095;-69
2022/03/30 06:38:38;;;;;;;4.07;1.15;;;5.00;99.90;;;;;;5132063;27;20042;-70
2022/03/30 06:41:06;;;;;;;3.75;1.42;;;5.10;99.90;;;;;;5130855;27;20047;-69
2022/03/30 06:43:31;;;;;;;6.18;1.67;;;5.10;99.90;;;;;;5132366;27;20051;-69
2022/03/30 06:45:57;;;;;;;5.00;1.77;;;5.20;99.90;;;;;;5134160;27;20438;-69
2022/03/30 06:48:22;;;;;;;4.72;1.23;;;5.30;99.90;;;;;;5132488;27;20070;-69
2022/03/30 06:50:48;;;;;;;2.83;1.00;;;5.30;99.90;;;;;;5130144;27;20035;-69
2022/03/30 06:53:14;;;;;;;2.20;0.88;;;5.40;99.90;;;;;;5151744;27;20031;-70
2022/03/30 06:55:40;;;;;;;3.08;1.25;;;5.40;99.90;;;;;;5133831;27;20054;-70
2022/03/30 06:58:06;;;;;;;6.85;1.30;;;5.50;99.90;;;;;;5120016;27;20051;-70
2022/03/30 07:00:32;;;;;;;2.85;1.15;;;5.50;99.90;;;;;;5134046;27;20089;-69
2022/03/30 07:02:58;;;;;;;5.15;1.20;;;5.60;99.90;;;;;;5119067;27;20030;-69
2022/03/30 07:05:24;;;;;;;7.32;1.42;;;5.70;99.90;;;;;;5116255;27;20122;-69
2022/03/30 07:10:35;;;;;;;4.28;1.25;;;5.90;99.90;;;;;;5131025;27;20399;-69
2022/03/30 07:13:03;;;;;;;5.65;1.30;;;5.90;99.90;;;;;;5118353;27;20446;-69
2022/03/30 07:15:30;;;;;;;7.07;1.35;;;6.00;99.90;;;;;;5112056;27;20055;-69
2022/03/30 07:17:56;;;;;;;;;;;6.10;99.90;;;;;;5119743;27;20046;-69
2022/03/30 07:20:26;;;;;;;2.90;0.90;;;6.10;99.90;;;;;;5132742;27;19958;-69
2022/03/30 07:22:53;;;;;;;5.15;1.92;;;6.20;99.90;;;;;;5133876;27;20035;-69
2022/03/30 07:25:20;;;;;;;4.35;1.25;;;6.30;99.90;;;;;;5115299;27;20050;-69
2022/03/30 07:27:50;;;;;;;7.28;1.25;;;6.40;99.90;;;;;;5122884;27;20034;-68
2022/03/30 07:30:17;;;;;;;3.78;1.20;;;6.50;99.90;;;;;;5124469;27;20043;-70
2022/03/30 07:32:43;;;;;;;;;;;6.50;99.90;;;;;;5113379;28;20047;-69
2022/03/30 07:35:11;;;;;;;1.95;0.80;;;6.60;99.90;;;;;;5112901;28;19919;-69
2022/03/30 07:37:39;;;;;;;2.67;0.80;;;6.60;99.90;;;;;;5122606;27;20122;-69
2022/03/30 07:40:07;;;;;;;5.65;1.15;;;6.70;99.90;;;;;;5133283;27;20038;-68
2022/03/30 07:42:33;;;;;;;3.72;1.02;;;6.80;99.90;;;;;;5133620;27;20183;-69
2022/03/30 07:44:59;;;;;;;3.47;1.10;;;6.80;99.90;;;;;;5133417;27;20113;-69
2022/03/30 07:47:29;;;;;;;3.65;1.10;;;6.90;99.90;;;;;;5132782;27;20393;-69
2022/03/30 07:49:55;;;;;;;3.60;0.85;;;6.90;99.90;;;;;;5134823;27;20070;-69
2022/03/30 07:52:21;;;;;;;3.58;1.15;;;7.00;99.90;;;;;;5136980;27;20458;-69
2022/03/30 07:54:52;;;;;;;3.13;0.95;;;6.90;99.90;;;;;;5123797;27;20110;-69
2022/03/30 07:57:20;;;;;;;4.32;1.00;;;6.90;99.90;;;;;;5117782;27;20051;-69
2022/03/30 07:59:46;;;;;;;3.88;0.90;;;7.00;99.90;;;;;;5132658;27;20043;-69
2022/03/30 08:02:15;;;;;;;3.13;1.00;;;7.00;99.90;;;;;;5117798;27;20504;-68
2022/03/30 08:04:42;;;;;;;3.55;0.90;;;6.90;99.90;;;;;;5116641;27;20096;-69
2022/03/30 08:07:07;;;;;;;2.75;0.90;;;7.00;99.90;;;;;;5118958;27;20478;-68
2022/03/30 08:09:33;;;;;;;2.60;1.20;;;6.90;99.90;;;;;;5116918;27;20038;-68
2022/03/30 08:11:59;;;;;;;4.05;0.90;;;6.80;99.90;;;;;;5116534;27;20043;-68
2022/03/30 08:14:24;;;;;;;4.10;1.42;;;6.60;99.90;;;;;;5116409;27;20043;-69
2022/03/30 08:16:50;;;;;;;3.28;1.00;;;6.50;99.90;;;;;;5099722;27;20046;-69
2022/03/30 08:19:16;;;;;;;4.72;0.90;;;6.40;99.90;;;;;;5099366;27;20490;-69
2022/03/30 08:24:27;;;;;;;2.78;0.68;;;6.20;99.90;;;;;;5116445;27;20391;-69
2022/03/30 08:26:52;;;;;;;;;;;6.20;99.90;;;;;;5116641;27;20096;-69
2022/03/30 08:29:18;;;;;;;3.10;1.00;;;6.20;99.90;;;;;;5124413;27;19915;-69
2022/03/30 08:31:44;;;;;;;2.50;0.77;;;6.20;99.90;;;;;;5124282;27;20042;-69
2022/03/30 08:34:10;;;;;;;4.25;1.20;;;6.30;99.90;;;;;;5098951;27;20042;-69
2022/03/30 08:36:36;;;;;;;3.33;0.90;;;6.40;99.90;;;;;;5098810;27;20078;-68
2022/03/30 08:39:11;;;;;;;4.63;1.23;;;6.50;99.90;;;;;;5114978;27;20063;-68
2022/03/30 08:41:42;;;;;;;3.85;0.85;;;6.50;99.90;;;;;;5117300;27;20087;-69
2022/03/30 08:44:08;;;;;;;3.60;0.90;;;6.70;99.90;;;;;;5131774;27;20079;-69
2022/03/30 08:46:34;;;;;;;3.30;0.77;;;6.70;99.90;;;;;;5133283;27;20038;-69
2022/03/30 08:48:59;;;;;;;4.22;0.60;;;6.90;99.90;;;;;;5125609;27;20031;-69
2022/03/30 08:51:25;;;;;;;2.20;0.70;;;7.00;99.90;;;;;;5134330;27;20505;-69
2022/03/30 08:53:51;;;;;;;2.45;0.80;;;7.10;99.90;;;;;;5113963;27;20126;-69
2022/03/30 08:56:17;;;;;;;3.58;0.63;;;7.10;99.90;;;;;;5115907;27;20050;-69
2022/03/30 08:58:43;;;;;;;2.78;0.73;;;7.20;99.90;;;;;;5128594;27;20046;-69
2022/03/30 09:01:14;;;;;;;3.13;0.90;;;7.20;99.90;;;;;;5125602;27;20031;-69
2022/03/30 09:03:56;;;;;;;2.33;0.70;;;7.20;99.90;;;;;;5132386;27;20039;-69
2022/03/30 09:06:44;;;;;;;3.38;1.00;;;7.30;99.90;;;;;;5115736;27;20050;-69
2022/03/30 09:09:10;;;;;;;5.30;1.27;;;7.30;99.90;;;;;;5131832;27;20047;-69
2022/03/30 09:11:40;;;;;;;3.03;0.70;;;7.40;99.90;;;;;;5125116;27;20043;-69
2022/03/30 09:14:12;;;;;;;2.70;0.80;;;7.30;99.90;;;;;;5135943;27;20042;-69
2022/03/30 09:16:49;;;;;;;2.17;0.50;;;7.30;99.90;;;;;;5136224;27;20455;-69
2022/03/30 09:19:17;;;;;;;3.25;0.90;;;7.40;99.90;;;;;;5135582;27;20421;-69
2022/03/30 09:21:55;;;;;;;3.60;0.90;;;7.60;99.90;;;;;;5118699;27;20043;-68
2022/03/30 09:24:24;;;;;;;2.80;0.80;;;7.60;99.90;;;;;;5135779;27;20473;-68
2022/03/30 09:26:54;;;;;;;4.43;0.85;;;7.50;99.90;;;;;;5135770;27;20057;-69
2022/03/30 09:29:24;;;;;;;3.40;0.70;;;7.40;99.90;;;;;;5134580;27;20050;-69
2022/03/30 09:31:51;;;;;;;2.42;0.50;;;7.50;99.90;;;;;;5120415;27;20457;-69
2022/03/30 09:34:19;;;;;;;1.63;0.60;;;7.50;99.90;;;;;;5116372;27;20043;-69
2022/03/30 09:36:48;;;;;;;1.92;0.60;;;7.50;99.90;;;;;;5121984;27;20058;-68
2022/03/30 09:39:31;;;;;;;2.13;0.50;;;7.50;99.90;;;;;;5112937;27;20125;-70
2022/03/30 09:41:59;;;;;;;1.83;0.57;;;7.50;99.90;;;;;;5116622;27;20498;-69
2022/03/30 09:44:27;;;;;;;2.42;0.60;;;7.50;99.90;;;;;;5114363;27;20120;-70
2022/03/30 09:47:05;;;;;;;3.45;0.65;;;7.60;99.90;;;;;;5114558;27;20051;-70
2022/03/30 09:49:43;;;;;;;2.38;0.57;;;7.60;99.90;;;;;;5114088;27;20063;-69
2022/03/30 09:52:23;;;;;;;1.38;0.50;;;7.60;99.90;;;;;;5114312;27;20042;-70
2022/03/30 09:54:54;;;;;;;2.47;0.70;;;7.60;99.90;;;;;;5114375;27;20031;-70
2022/03/30 09:57:22;;;;;;;2.05;0.63;;;7.60;99.90;;;;;;5115156;27;20145;-70
2022/03/30 10:00:02;;;;;;;2.30;0.73;;;7.60;99.90;;;;;;5129639;27;20057;-70
2022/03/30 10:02:35;;;;;;;0.75;0.40;;;7.60;99.90;;;;;;5114335;27;20482;-69
2022/03/30 10:05:02;;;;;;;2.38;0.70;;;7.70;99.90;;;;;;5113995;27;20183;-71
2022/03/30 10:07:29;;;;;;;3.13;0.75;;;7.70;99.90;;;;;;5114428;27;20467;-68
2022/03/30 10:09:56;;;;;;;2.15;0.63;;;7.60;99.90;;;;;;5113978;27;20043;-69
2022/03/30 10:12:26;;;;;;;3.55;0.80;;;7.50;99.90;;;;;;5114151;27;20065;-71
2022/03/30 10:14:53;;;;;;;3.45;0.90;;;7.50;99.90;;;;;;5096764;27;20051;-69
2022/03/30 10:17:20;;;;;;;1.58;0.60;;;7.50;99.90;;;;;;5113744;27;20122;-69
2022/03/30 10:19:46;;;;;;;3.13;1.00;;;7.60;99.90;;;;;;5113905;27;20043;-69
2022/03/30 10:22:37;;;;;;;4.93;1.20;;;7.60;99.90;;;;;;5096890;27;20114;-69
2022/03/30 10:25:21;;;;;;;3.55;1.20;;;7.60;99.90;;;;;;5107044;27;20042;-69
2022/03/30 10:28:11;;;;;;;2.40;0.88;;;7.70;99.90;;;;;;5127657;27;20043;-69
2022/03/30 10:30:39;;;;;;;2.70;1.00;;;7.80;99.90;;;;;;5122336;27;20058;-68
2022/03/30 10:33:05;;;;;;;6.13;1.00;;;7.80;99.90;;;;;;5126963;27;20438;-69
2022/03/30 10:35:40;;;;;;;3.63;1.05;;;7.80;99.90;;;;;;5114567;27;20083;-69
2022/03/30 10:38:06;;;;;;;1.65;0.90;;;7.80;99.90;;;;;;5113580;27;20394;-69
2022/03/30 10:40:32;;;;;;;2.78;0.90;;;7.80;99.90;;;;;;5113716;27;20077;-69
2022/03/30 10:43:01;;;;;;;2.47;0.90;;;7.90;99.90;;;;;;5113665;27;20078;-69
2022/03/30 10:45:39;;;;;;;2.67;1.00;;;8.00;99.90;;;;;;5113442;27;20051;-69
2022/03/30 10:48:23;;;;;;;4.30;0.90;;;8.00;99.90;;;;;;5131278;27;20128;-69
2022/03/30 10:51:15;;;;;;;6.15;1.27;;;7.80;99.90;;;;;;5113038;27;20050;-69
2022/03/30 10:53:49;;;;;;;2.72;0.82;;;7.70;99.90;;;;;;5130010;27;20528;-69
2022/03/30 10:56:15;;;;;;;2.95;0.80;;;7.80;99.90;;;;;;5134013;27;20046;-69
2022/03/30 10:58:53;;;;;;;2.53;0.85;;;7.90;99.90;;;;;;5132052;27;20043;-70
2022/03/30 11:01:28;;;;;;;2.40;0.70;;;8.00;99.90;;;;;;5131039;27;20050;-70
2022/03/30 11:04:18;;;;;;;4.72;1.00;;;8.00;99.90;;;;;;5132789;27;20122;-69
2022/03/30 11:07:07;;;;;;;3.03;0.90;;;7.90;99.90;;;;;;5133961;27;20370;-69
2022/03/30 11:09:35;;;;;;;2.50;0.70;;;7.80;99.90;;;;;;5132979;27;20039;-68
2022/03/30 11:12:12;;;;;;;2.88;0.82;;;7.50;99.90;;;;;;5133539;27;20035;-74
2022/03/30 11:14:46;;;;;;;;;;;7.30;99.90;;;;;;5134424;27;20052;-75
2022/03/30 11:17:31;;;;;;;3.58;1.00;;;7.40;99.90;;;;;;5101090;27;20350;-75
2022/03/30 11:19:57;;;;;;;2.53;0.80;;;7.50;99.90;;;;;;5119062;27;20050;-75
2022/03/30 11:22:24;;;;;;;;;;;7.50;99.90;;;;;;5130318;27;20179;-74
2022/03/30 11:25:07;;;;;;;3.38;0.68;;;7.40;99.90;;;;;;5133034;27;19919;-76
2022/03/30 11:27:33;;;;;;;4.57;1.10;;;7.50;99.90;;;;;;5131342;27;20497;-76
2022/03/30 11:30:01;;;;;;;2.03;0.60;;;7.70;99.90;;;;;;5119660;27;20045;-75
2022/03/30 11:32:28;;;;;;;2.80;0.60;;;7.90;99.90;;;;;;5116608;27;20046;-75
2022/03/30 11:34:55;;;;;;;2.47;0.82;;;8.00;99.90;;;;;;5133744;27;20490;-74
2022/03/30 11:37:25;;;;;;;2.25;0.73;;;8.00;99.90;;;;;;5133531;27;20447;-75
2022/03/30 11:39:59;;;;;;;1.98;0.43;;;8.20;99.90;;;;;;5133410;27;20043;-75
2022/03/30 11:42:26;;;;;;;2.75;0.77;;;8.40;99.00;;;;;;5151999;27;20034;-74
2022/03/30 11:47:36;;;;;;;1.75;0.68;;;8.80;97.10;;;;;;5113265;27;20062;-74
2022/03/30 11:50:03;;;;;;;3.17;0.75;;;8.90;97.60;;;;;;5127609;27;20110;-74
2022/03/30 11:52:29;;;;;;;3.88;1.25;;;9.10;96.80;;;;;;5115851;27;20046;-75
2022/03/30 11:54:55;;;;;;;4.13;0.80;;;9.20;94.70;;;;;;5115811;28;20470;-69
2022/03/30 11:57:21;;;;;;;;;;;9.20;94.10;;;;;;5096024;27;20054;-69
2022/03/30 11:59:56;;;;;;;2.85;0.80;;;9.80;95.20;;;;;;5100852;27;20297;-68
2022/03/30 12:02:23;;;;;;;3.10;0.60;;;9.90;94.90;;;;;;5123395;28;20410;-70
2022/03/30 12:04:48;;;;;;;3.97;0.70;;;10.10;94.70;;;;;;5112675;28;20039;-70
2022/03/30 12:07:15;;;;;;;2.72;1.02;;;9.90;93.50;;;;;;5112519;27;20036;-69
2022/03/30 12:09:44;;;;;;;;;;;9.90;93.30;;;;;;5117505;27;20122;-68
2022/03/30 12:12:11;;;;;;;2.13;0.80;;;10.00;93.50;;;;;;5106084;27;20022;-70
2022/03/30 12:14:37;;;;;;;3.35;0.80;;;10.40;94.30;;;;;;5115238;27;20092;-69
2022/03/30 12:17:04;;;;;;;2.88;0.55;;;10.70;93.50;;;;;;5114315;27;20505;-77
2022/03/30 12:19:30;;;;;;;4.45;0.80;;;10.40;92.90;;;;;;5109298;28;20781;-75
2022/03/30 12:22:05;;;;;;;4.25;0.90;;;10.00;92.20;;;;;;5111485;28;20058;-75
2022/03/30 12:24:34;;;;;;;4.50;0.80;;;9.50;93.60;;;;;;5126317;28;20047;-75
2022/03/30 12:27:00;;;;;;;3.08;0.70;;;9.20;92.90;;;;;;5129986;28;20481;-74
2022/03/30 12:29:31;;;;;;;2.03;0.57;;;9.00;93.00;;;;;;5129508;28;20068;-75
2022/03/30 12:31:59;;;;;;;3.75;0.57;;;8.80;93.80;;;;;;5123591;28;20034;-75
2022/03/30 12:34:27;;;;;;;3.22;0.82;;;8.70;93.10;;;;;;5109106;28;20071;-75
2022/03/30 12:36:58;;;;;;;3.38;0.90;;;8.60;93.60;;;;;;5093705;28;20043;-76
2022/03/30 12:39:44;;;;;;;2.92;0.75;;;8.40;95.00;;;;;;5112756;28;20048;-75
2022/03/30 12:42:24;;;;;;;4.05;0.77;;;8.40;95.20;;;;;;5112592;28;20031;-75
2022/03/30 12:44:58;;;;;;;3.08;1.05;;;8.50;96.10;;;;;;5112806;28;20050;-75
2022/03/30 12:47:32;;;;;;;3.08;0.90;;;8.70;95.80;;;;;;5130182;27;20046;-75
2022/03/30 12:50:13;;;;;;;3.22;0.70;;;8.70;95.20;;;;;;5117956;27;20043;-75
2022/03/30 12:52:51;;;;;;;2.88;0.90;;;8.70;95.10;;;;;;5121798;27;20035;-75
2022/03/30 12:55:36;;;;;;;3.60;0.88;;;8.70;95.60;;;;;;5132578;27;20049;-69
2022/03/30 12:58:14;;;;;;;2.92;0.82;;;8.70;94.80;;;;;;5127418;27;20043;-69
2022/03/30 13:00:51;;;;;;;2.38;0.70;;;8.90;95.00;;;;;;5098592;28;20171;-76
2022/03/30 13:03:19;;;;;;;2.33;0.50;;;9.00;94.60;;;;;;5115021;27;20130;-76
2022/03/30 13:06:07;;;;;;;0.85;0.45;;;9.10;94.10;;;;;;5126290;27;20036;-75
2022/03/30 13:08:34;;;;;;;4.55;0.70;;;9.20;94.30;;;;;;5131438;27;20051;-75
2022/03/30 13:11:07;;;;;;;2.47;0.85;;;9.30;93.20;;;;;;5108768;27;20353;-75
2022/03/30 13:13:38;;;;;;;2.60;0.75;;;9.50;93.00;;;;;;5129325;27;20043;-73
2022/03/30 13:16:05;;;;;;;1.58;0.63;;;9.70;92.80;;;;;;5132091;27;20043;-75